sensor_id;sensor_type;location;lat;lon;timestamp;temperature;humidity
15115;DHT22;7658;51.456;7.622;2023-03-01T00:01:26;-2.20;99.90
15115;DHT22;7658;51.456;7.622;2023-03-01T00:03:53;-2.20;99.90
15115;DHT22;7658;51.456;7.622;2023-03-01T00:06:20;-2.20;99.90
15115;DHT22;7658;51.456;7.622;2023-03-01T00:08:47;-2.20;99.90
15115;DHT22;7658;51.456;7.622;2023-03-01T00:11:24;-2.10;99.90
15115;DHT22;7658;51.456;7.622;2023-03-01T00:13:54;-2.20;99.90
15115;DHT22;7658;51.456;7.622;2023-03-01T00:18:48;-2.30;99.90
15115;DHT22;7658;51.456;7.622;2023-03-01T00:21:14;-2.30;99.90
15115;DHT22;7658;51.456;7.622;2023-03-01T00:23:40;-2.30;99.90
15115;DHT22;7658;51.456;7.622;2023-03-01T00:26:09;-2.20;99.90
15115;DHT22;7658;51.456;7.622;2023-03-01T00:28:36;-2.10;99.90
15115;DHT22;7658;51.456;7.622;2023-03-01T00:31:12;-2.00;99.90
15115;DHT22;7658;51.456;7.622;2023-03-01T00:33:39;-2.20;99.90
15115;DHT22;7658;51.456;7.622;2023-03-01T00:36:05;-2.30;99.90
15115;DHT22;7658;51.456;7.622;2023-03-01T00:38:38;-2.20;99.90
15115;DHT22;7658;51.456;7.622;2023-03-01T00:41:06;-2.20;99.90
15115;DHT22;7658;51.456;7.622;2023-03-01T00:43:32;-2.20;99.90
15115;DHT22;7658;51.456;7.622;2023-03-01T00:46:07;-2.40;99.90
15115;DHT22;7658;51.456;7.622;2023-03-01T00:48:33;-2.60;99.90
15115;DHT22;7658;51.456;7.622;2023-03-01T00:51:09;-2.70;99.90
15115;DHT22;7658;51.456;7.622;2023-03-01T00:53:36;-2.70;99.90
15115;DHT22;7658;51.456;7.622;2023-03-01T00:56:03;-2.70;99.90
15115;DHT22;7658;51.456;7.622;2023-03-01T00:58:29;-2.60;99.90
15115;DHT22;7658;51.456;7.622;2023-03-01T01:00:55;-2.60;99.90
15115;DHT22;7658;51.456;7.622;2023-03-01T01:03:21;-2.60;99.90
15115;DHT22;7658;51.456;7.622;2023-03-01T01:05:48;-2.70;99.90
15115;DHT22;7658;51.456;7.622;2023-03-01T01:08:14;-2.60;99.90
15115;DHT22;7658;51.456;7.622;2023-03-01T01:10:40;-2.50;99.90
15115;DHT22;7658;51.456;7.622;2023-03-01T01:13:05;-2.50;99.90
15115;DHT22;7658;51.456;7.622;2023-03-01T01:15:34;-2.60;99.90
15115;DHT22;7658;51.456;7.622;2023-03-01T01:18:00;-2.60;99.90
15115;DHT22;7658;51.456;7.622;2023-03-01T01:20:26;-2.60;99.90
15115;DHT22;7658;51.456;7.622;2023-03-01T01:22:52;-2.60;99.90
15115;DHT22;7658;51.456;7.622;2023-03-01T01:25:18;-2.60;99.90
15115;DHT22;7658;51.456;7.622;2023-03-01T01:27:44;-2.50;99.90
15115;DHT22;7658;51.456;7.622;2023-03-01T01:30:10;-2.60;99.90
15115;DHT22;7658;51.456;7.622;2023-03-01T01:32:36;-2.70;99.90
15115;DHT22;7658;51.456;7.622;2023-03-01T01:35:02;-2.70;99.90
15115;DHT22;7658;51.456;7.622;2023-03-01T01:37:28;-2.80;99.90
15115;DHT22;7658;51.456;7.622;2023-03-01T01:40:00;-2.90;99.90
15115;DHT22;7658;51.456;7.622;2023-03-01T01:42:29;-2.90;99.90
15115;DHT22;7658;51.456;7.622;2023-03-01T01:47:49;-3.10;99.90
15115;DHT22;7658;51.456;7.622;2023-03-01T01:50:17;-3.00;99.90
15115;DHT22;7658;51.456;7.622;2023-03-01T01:52:45;-3.10;99.90
15115;DHT22;7658;51.456;7.622;2023-03-01T01:55:15;-3.20;99.90
15115;DHT22;7658;51.456;7.622;2023-03-01T01:57:46;-3.40;99.90
15115;DHT22;7658;51.456;7.622;2023-03-01T02:00:16;-3.30;99.90
15115;DHT22;7658;51.456;7.622;2023-03-01T02:02:43;-3.30;99.90
15115;DHT22;7658;51.456;7.622;2023-03-01T02:05:17;-3.30;99.90
15115;DHT22;7658;51.456;7.622;2023-03-01T02:07:44;-3.40;99.90
15115;DHT22;7658;51.456;7.622;2023-03-01T02:10:11;-3.40;99.90
15115;DHT22;7658;51.456;7.622;2023-03-01T02:12:37;-3.50;99.90
15115;DHT22;7658;51.456;7.622;2023-03-01T02:15:04;-3.30;99.90
15115;DHT22;7658;51.456;7.622;2023-03-01T02:17:31;-3.30;99.90
15115;DHT22;7658;51.456;7.622;2023-03-01T02:22:44;-3.20;99.90
15115;DHT22;7658;51.456;7.622;2023-03-01T02:28:08;-3.20;99.90
15115;DHT22;7658;51.456;7.622;2023-03-01T02:30:35;-3.40;99.90
15115;DHT22;7658;51.456;7.622;2023-03-01T02:33:04;-3.40;99.90
15115;DHT22;7658;51.456;7.622;2023-03-01T02:35:37;-3.40;99.90
15115;DHT22;7658;51.456;7.622;2023-03-01T02:38:07;-3.50;99.90
15115;DHT22;7658;51.456;7.622;2023-03-01T02:40:34;-3.70;99.90
15115;DHT22;7658;51.456;7.622;2023-03-01T02:43:01;-3.70;99.90
15115;DHT22;7658;51.456;7.622;2023-03-01T02:45:29;-3.60;99.90
15115;DHT22;7658;51.456;7.622;2023-03-01T02:47:56;-3.50;99.90
15115;DHT22;7658;51.456;7.622;2023-03-01T02:51:04;-3.40;99.90
15115;DHT22;7658;51.456;7.622;2023-03-01T02:54:06;-3.40;99.90
15115;DHT22;7658;51.456;7.622;2023-03-01T02:56:33;-3.50;99.90
15115;DHT22;7658;51.456;7.622;2023-03-01T02:59:00;-3.40;99.90
15115;DHT22;7658;51.456;7.622;2023-03-01T03:01:26;-3.40;99.90
15115;DHT22;7658;51.456;7.622;2023-03-01T03:04:04;-3.40;99.90
15115;DHT22;7658;51.456;7.622;2023-03-01T03:06:30;-3.30;99.90
15115;DHT22;7658;51.456;7.622;2023-03-01T03:08:55;-3.30;99.90
15115;DHT22;7658;51.456;7.622;2023-03-01T03:11:21;-3.40;99.90
15115;DHT22;7658;51.456;7.622;2023-03-01T03:13:47;-3.40;99.90
15115;DHT22;7658;51.456;7.622;2023-03-01T03:16:14;-3.50;99.90
15115;DHT22;7658;51.456;7.622;2023-03-01T03:18:40;-3.60;99.90
15115;DHT22;7658;51.456;7.622;2023-03-01T03:21:10;-3.70;99.90
15115;DHT22;7658;51.456;7.622;2023-03-01T03:23:36;-3.80;99.90
15115;DHT22;7658;51.456;7.622;2023-03-01T03:26:03;-3.90;99.90
15115;DHT22;7658;51.456;7.622;2023-03-01T03:28:34;-4.00;99.90
15115;DHT22;7658;51.456;7.622;2023-03-01T03:31:00;-4.10;99.90
15115;DHT22;7658;51.456;7.622;2023-03-01T03:33:30;-4.10;99.90
15115;DHT22;7658;51.456;7.622;2023-03-01T03:35:56;-4.00;99.90
15115;DHT22;7658;51.456;7.622;2023-03-01T03:38:22;-4.10;99.90
15115;DHT22;7658;51.456;7.622;2023-03-01T03:40:50;-4.30;99.90
15115;DHT22;7658;51.456;7.622;2023-03-01T03:43:19;-4.30;99.90
15115;DHT22;7658;51.456;7.622;2023-03-01T03:45:46;-4.30;99.90
15115;DHT22;7658;51.456;7.622;2023-03-01T03:48:13;-4.30;99.90
15115;DHT22;7658;51.456;7.622;2023-03-01T03:50:39;-4.40;99.90
15115;DHT22;7658;51.456;7.622;2023-03-01T03:53:09;-4.30;99.90
15115;DHT22;7658;51.456;7.622;2023-03-01T03:55:35;-4.20;99.90
15115;DHT22;7658;51.456;7.622;2023-03-01T03:58:06;-4.20;99.90
15115;DHT22;7658;51.456;7.622;2023-03-01T04:00:38;-4.10;99.90
15115;DHT22;7658;51.456;7.622;2023-03-01T04:03:04;-4.10;99.90
15115;DHT22;7658;51.456;7.622;2023-03-01T04:05:30;-4.10;99.90
15115;DHT22;7658;51.456;7.622;2023-03-01T04:07:56;-4.10;99.90
15115;DHT22;7658;51.456;7.622;2023-03-01T04:10:30;-4.00;99.90
15115;DHT22;7658;51.456;7.622;2023-03-01T04:12:57;-3.90;99.90
15115;DHT22;7658;51.456;7.622;2023-03-01T04:15:24;-4.00;99.90
15115;DHT22;7658;51.456;7.622;2023-03-01T04:17:51;-4.10;99.90
15115;DHT22;7658;51.456;7.622;2023-03-01T04:20:21;-4.20;99.90
15115;DHT22;7658;51.456;7.622;2023-03-01T04:25:23;-4.00;99.90
15115;DHT22;7658;51.456;7.622;2023-03-01T04:27:49;-4.00;99.90
15115;DHT22;7658;51.456;7.622;2023-03-01T04:30:15;-3.90;99.90
15115;DHT22;7658;51.456;7.622;2023-03-01T04:32:41;-4.20;99.90
15115;DHT22;7658;51.456;7.622;2023-03-01T04:35:07;-4.30;99.90
15115;DHT22;7658;51.456;7.622;2023-03-01T04:37:33;-4.40;99.90
15115;DHT22;7658;51.456;7.622;2023-03-01T04:40:00;-4.60;99.90
15115;DHT22;7658;51.456;7.622;2023-03-01T04:42:26;-4.60;99.90
15115;DHT22;7658;51.456;7.622;2023-03-01T04:44:52;-4.60;99.90
15115;DHT22;7658;51.456;7.622;2023-03-01T04:47:18;-4.60;99.90
15115;DHT22;7658;51.456;7.622;2023-03-01T04:49:43;-4.60;99.90
15115;DHT22;7658;51.456;7.622;2023-03-01T04:52:09;-4.70;99.90
15115;DHT22;7658;51.456;7.622;2023-03-01T04:54:35;-4.80;99.90
15115;DHT22;7658;51.456;7.622;2023-03-01T04:57:02;-4.80;99.90
15115;DHT22;7658;51.456;7.622;2023-03-01T04:59:28;-4.90;99.90
15115;DHT22;7658;51.456;7.622;2023-03-01T05:01:55;-5.00;99.90
15115;DHT22;7658;51.456;7.622;2023-03-01T05:04:24;-5.10;99.90
15115;DHT22;7658;51.456;7.622;2023-03-01T05:06:50;-5.10;99.90
15115;DHT22;7658;51.456;7.622;2023-03-01T05:09:16;-5.10;99.90
15115;DHT22;7658;51.456;7.622;2023-03-01T05:11:42;-5.10;99.90
15115;DHT22;7658;51.456;7.622;2023-03-01T05:14:09;-5.00;99.90
15115;DHT22;7658;51.456;7.622;2023-03-01T05:16:35;-5.00;99.90
15115;DHT22;7658;51.456;7.622;2023-03-01T05:19:02;-4.90;99.90
15115;DHT22;7658;51.456;7.622;2023-03-01T05:21:37;-4.70;99.90
15115;DHT22;7658;51.456;7.622;2023-03-01T05:24:23;-4.70;99.90
15115;DHT22;7658;51.456;7.622;2023-03-01T05:26:50;-4.60;99.90
15115;DHT22;7658;51.456;7.622;2023-03-01T05:29:18;-4.50;99.90
15115;DHT22;7658;51.456;7.622;2023-03-01T05:31:52;-4.50;99.90
15115;DHT22;7658;51.456;7.622;2023-03-01T05:34:19;-4.50;99.90
15115;DHT22;7658;51.456;7.622;2023-03-01T05:36:48;-4.60;99.90
15115;DHT22;7658;51.456;7.622;2023-03-01T05:39:14;-4.60;99.90
15115;DHT22;7658;51.456;7.622;2023-03-01T05:41:39;-4.60;99.90
15115;DHT22;7658;51.456;7.622;2023-03-01T05:44:06;-4.60;99.90
15115;DHT22;7658;51.456;7.622;2023-03-01T05:46:32;-4.70;99.90
15115;DHT22;7658;51.456;7.622;2023-03-01T05:48:58;-4.90;99.90
15115;DHT22;7658;51.456;7.622;2023-03-01T05:51:24;-4.80;99.90
15115;DHT22;7658;51.456;7.622;2023-03-01T05:53:49;-4.90;99.90
15115;DHT22;7658;51.456;7.622;2023-03-01T05:56:15;-4.90;99.90
15115;DHT22;7658;51.456;7.622;2023-03-01T05:58:41;-4.80;99.90
15115;DHT22;7658;51.456;7.622;2023-03-01T06:01:11;-4.80;99.90
15115;DHT22;7658;51.456;7.622;2023-03-01T06:03:38;-4.80;99.90
15115;DHT22;7658;51.456;7.622;2023-03-01T06:06:03;-4.90;99.90
15115;DHT22;7658;51.456;7.622;2023-03-01T06:08:29;-4.90;99.90
15115;DHT22;7658;51.456;7.622;2023-03-01T06:10:55;-5.00;99.90
15115;DHT22;7658;51.456;7.622;2023-03-01T06:13:21;-5.00;99.90
15115;DHT22;7658;51.456;7.622;2023-03-01T06:15:48;-5.10;99.90
15115;DHT22;7658;51.456;7.622;2023-03-01T06:18:14;-5.00;99.90
15115;DHT22;7658;51.456;7.622;2023-03-01T06:20:40;-5.00;99.90
15115;DHT22;7658;51.456;7.622;2023-03-01T06:23:05;-5.00;99.90
15115;DHT22;7658;51.456;7.622;2023-03-01T06:25:31;-5.00;99.90
15115;DHT22;7658;51.456;7.622;2023-03-01T06:27:57;-4.90;99.90
15115;DHT22;7658;51.456;7.622;2023-03-01T06:30:25;-4.90;99.90
15115;DHT22;7658;51.456;7.622;2023-03-01T06:32:51;-5.00;99.90
15115;DHT22;7658;51.456;7.622;2023-03-01T06:35:18;-5.10;99.90
15115;DHT22;7658;51.456;7.622;2023-03-01T06:37:45;-5.00;99.90
15115;DHT22;7658;51.456;7.622;2023-03-01T06:40:12;-4.90;99.90
15115;DHT22;7658;51.456;7.622;2023-03-01T06:42:40;-4.80;99.90
15115;DHT22;7658;51.456;7.622;2023-03-01T06:45:08;-4.60;99.90
15115;DHT22;7658;51.456;7.622;2023-03-01T06:47:34;-4.50;99.90
15115;DHT22;7658;51.456;7.622;2023-03-01T06:50:00;-4.50;99.90
15115;DHT22;7658;51.456;7.622;2023-03-01T06:52:26;-4.50;99.90
15115;DHT22;7658;51.456;7.622;2023-03-01T06:54:52;-4.50;99.90
15115;DHT22;7658;51.456;7.622;2023-03-01T06:57:18;-4.50;99.90
15115;DHT22;7658;51.456;7.622;2023-03-01T06:59:43;-4.50;99.90
15115;DHT22;7658;51.456;7.622;2023-03-01T07:02:13;-4.60;99.90
15115;DHT22;7658;51.456;7.622;2023-03-01T07:04:39;-4.60;99.90
15115;DHT22;7658;51.456;7.622;2023-03-01T07:07:05;-4.50;99.90
15115;DHT22;7658;51.456;7.622;2023-03-01T07:09:31;-4.50;99.90
15115;DHT22;7658;51.456;7.622;2023-03-01T07:11:57;-4.40;99.90
15115;DHT22;7658;51.456;7.622;2023-03-01T07:14:23;-4.40;99.90
15115;DHT22;7658;51.456;7.622;2023-03-01T07:16:54;-4.30;99.90
15115;DHT22;7658;51.456;7.622;2023-03-01T07:19:21;-4.20;99.90
15115;DHT22;7658;51.456;7.622;2023-03-01T07:21:47;-4.10;99.90
15115;DHT22;7658;51.456;7.622;2023-03-01T07:24:12;-4.00;99.90
15115;DHT22;7658;51.456;7.622;2023-03-01T07:26:38;-3.90;99.90
15115;DHT22;7658;51.456;7.622;2023-03-01T07:29:06;-3.80;99.90
15115;DHT22;7658;51.456;7.622;2023-03-01T07:31:32;-3.70;99.90
15115;DHT22;7658;51.456;7.622;2023-03-01T07:33:58;-3.60;99.90
15115;DHT22;7658;51.456;7.622;2023-03-01T07:36:24;-3.50;99.90
15115;DHT22;7658;51.456;7.622;2023-03-01T07:38:50;-3.40;99.90
15115;DHT22;7658;51.456;7.622;2023-03-01T07:41:16;-3.30;99.90
15115;DHT22;7658;51.456;7.622;2023-03-01T07:43:42;-3.20;99.90
15115;DHT22;7658;51.456;7.622;2023-03-01T07:46:07;-3.00;99.90
15115;DHT22;7658;51.456;7.622;2023-03-01T07:48:33;-2.70;99.90
15115;DHT22;7658;51.456;7.622;2023-03-01T07:51:00;-2.30;99.90
15115;DHT22;7658;51.456;7.622;2023-03-01T07:53:27;-1.90;99.90
15115;DHT22;7658;51.456;7.622;2023-03-01T07:56:11;-1.50;99.90
15115;DHT22;7658;51.456;7.622;2023-03-01T07:58:40;-1.30;99.90
15115;DHT22;7658;51.456;7.622;2023-03-01T08:01:12;-1.20;99.90
15115;DHT22;7658;51.456;7.622;2023-03-01T08:03:41;-1.10;99.90
15115;DHT22;7658;51.456;7.622;2023-03-01T08:06:10;-1.00;99.90
15115;DHT22;7658;51.456;7.622;2023-03-01T08:08:36;-0.90;99.90
15115;DHT22;7658;51.456;7.622;2023-03-01T08:11:04;-0.80;99.90
15115;DHT22;7658;51.456;7.622;2023-03-01T08:13:31;-0.70;99.90
15115;DHT22;7658;51.456;7.622;2023-03-01T08:16:05;-0.70;99.90
15115;DHT22;7658;51.456;7.622;2023-03-01T08:18:32;-0.60;99.90
15115;DHT22;7658;51.456;7.622;2023-03-01T08:21:05;-0.50;99.90
15115;DHT22;7658;51.456;7.622;2023-03-01T08:23:32;-0.50;99.90
15115;DHT22;7658;51.456;7.622;2023-03-01T08:26:10;-0.40;99.90
15115;DHT22;7658;51.456;7.622;2023-03-01T08:28:37;-0.40;99.90
15115;DHT22;7658;51.456;7.622;2023-03-01T08:31:12;-0.20;99.90
15115;DHT22;7658;51.456;7.622;2023-03-01T08:33:38;-0.10;99.90
15115;DHT22;7658;51.456;7.622;2023-03-01T08:36:07;0.00;99.90
15115;DHT22;7658;51.456;7.622;2023-03-01T08:38:34;0.20;99.90
15115;DHT22;7658;51.456;7.622;2023-03-01T08:41:03;0.30;99.90
15115;DHT22;7658;51.456;7.622;2023-03-01T08:43:30;0.50;99.90
15115;DHT22;7658;51.456;7.622;2023-03-01T08:45:55;0.60;99.90
15115;DHT22;7658;51.456;7.622;2023-03-01T08:48:21;0.70;99.90
15115;DHT22;7658;51.456;7.622;2023-03-01T08:50:47;0.90;99.90
15115;DHT22;7658;51.456;7.622;2023-03-01T08:53:12;1.00;99.90
15115;DHT22;7658;51.456;7.622;2023-03-01T08:55:38;1.00;99.90
15115;DHT22;7658;51.456;7.622;2023-03-01T08:58:05;1.20;99.90
15115;DHT22;7658;51.456;7.622;2023-03-01T09:00:31;1.10;99.90
15115;DHT22;7658;51.456;7.622;2023-03-01T09:03:00;1.20;99.90
15115;DHT22;7658;51.456;7.622;2023-03-01T09:05:26;1.40;99.90
15115;DHT22;7658;51.456;7.622;2023-03-01T09:07:51;1.70;99.90
15115;DHT22;7658;51.456;7.622;2023-03-01T09:10:17;1.80;99.90
15115;DHT22;7658;51.456;7.622;2023-03-01T09:12:43;1.90;99.90
15115;DHT22;7658;51.456;7.622;2023-03-01T09:15:10;2.10;99.90
15115;DHT22;7658;51.456;7.622;2023-03-01T09:17:35;2.20;99.90
15115;DHT22;7658;51.456;7.622;2023-03-01T09:20:01;2.30;99.90
15115;DHT22;7658;51.456;7.622;2023-03-01T09:22:27;2.40;99.90
15115;DHT22;7658;51.456;7.622;2023-03-01T09:24:52;2.60;99.90
15115;DHT22;7658;51.456;7.622;2023-03-01T09:27:19;2.70;99.90
15115;DHT22;7658;51.456;7.622;2023-03-01T09:29:45;2.90;99.90
15115;DHT22;7658;51.456;7.622;2023-03-01T09:32:11;3.00;99.90
15115;DHT22;7658;51.456;7.622;2023-03-01T09:34:36;3.00;99.90
15115;DHT22;7658;51.456;7.622;2023-03-01T09:37:22;3.10;99.90
15115;DHT22;7658;51.456;7.622;2023-03-01T09:39:48;3.20;99.90
15115;DHT22;7658;51.456;7.622;2023-03-01T09:42:13;3.30;99.90
15115;DHT22;7658;51.456;7.622;2023-03-01T09:44:48;3.40;99.90
15115;DHT22;7658;51.456;7.622;2023-03-01T09:47:33;3.50;99.90
15115;DHT22;7658;51.456;7.622;2023-03-01T09:50:12;3.60;99.90
15115;DHT22;7658;51.456;7.622;2023-03-01T09:55:11;3.80;99.90
15115;DHT22;7658;51.456;7.622;2023-03-01T09:57:53;3.90;99.90
15115;DHT22;7658;51.456;7.622;2023-03-01T10:00:42;3.90;99.90
15115;DHT22;7658;51.456;7.622;2023-03-01T10:05:59;3.90;99.90
15115;DHT22;7658;51.456;7.622;2023-03-01T10:08:29;3.90;99.90
15115;DHT22;7658;51.456;7.622;2023-03-01T10:10:57;3.90;99.90
15115;DHT22;7658;51.456;7.622;2023-03-01T10:19:04;3.90;99.90
15115;DHT22;7658;51.456;7.622;2023-03-01T10:21:36;4.00;99.90
15115;DHT22;7658;51.456;7.622;2023-03-01T10:24:14;4.00;99.90
15115;DHT22;7658;51.456;7.622;2023-03-01T10:29:11;4.20;99.90
15115;DHT22;7658;51.456;7.622;2023-03-01T10:34:21;4.20;99.90
15115;DHT22;7658;51.456;7.622;2023-03-01T10:36:50;4.20;99.90
15115;DHT22;7658;51.456;7.622;2023-03-01T10:39:22;4.30;99.90
15115;DHT22;7658;51.456;7.622;2023-03-01T10:41:56;4.30;99.90
15115;DHT22;7658;51.456;7.622;2023-03-01T10:44:54;4.50;99.90
15115;DHT22;7658;51.456;7.622;2023-03-01T10:47:22;4.40;99.90
15115;DHT22;7658;51.456;7.622;2023-03-01T10:49:54;4.50;99.90
15115;DHT22;7658;51.456;7.622;2023-03-01T10:52:26;4.70;99.90
15115;DHT22;7658;51.456;7.622;2023-03-01T10:57:39;5.00;99.90
15115;DHT22;7658;51.456;7.622;2023-03-01T11:00:18;5.10;99.90
15115;DHT22;7658;51.456;7.622;2023-03-01T11:05:25;5.60;99.90
15115;DHT22;7658;51.456;7.622;2023-03-01T11:07:55;5.70;99.90
15115;DHT22;7658;51.456;7.622;2023-03-01T11:10:29;5.80;99.90
15115;DHT22;7658;51.456;7.622;2023-03-01T11:15:33;5.90;99.90
15115;DHT22;7658;51.456;7.622;2023-03-01T11:17:59;5.80;99.90
15115;DHT22;7658;51.456;7.622;2023-03-01T11:20:34;6.00;99.90
15115;DHT22;7658;51.456;7.622;2023-03-01T11:23:13;6.00;99.90
15115;DHT22;7658;51.456;7.622;2023-03-01T11:25:43;6.10;99.90
15115;DHT22;7658;51.456;7.622;2023-03-01T11:28:14;6.20;99.90
15115;DHT22;7658;51.456;7.622;2023-03-01T11:31:09;6.40;99.90
15115;DHT22;7658;51.456;7.622;2023-03-01T11:33:44;6.40;99.90
15115;DHT22;7658;51.456;7.622;2023-03-01T11:39:42;6.50;99.90
15115;DHT22;7658;51.456;7.622;2023-03-01T11:42:24;6.70;99.90
15115;DHT22;7658;51.456;7.622;2023-03-01T11:44:54;6.80;99.90
15115;DHT22;7658;51.456;7.622;2023-03-01T11:47:30;7.00;99.90
15115;DHT22;7658;51.456;7.622;2023-03-01T11:52:58;7.40;99.90
15115;DHT22;7658;51.456;7.622;2023-03-01T12:06:57;7.40;99.90
15115;DHT22;7658;51.456;7.622;2023-03-01T12:09:33;7.60;99.90
15115;DHT22;7658;51.456;7.622;2023-03-01T12:22:46;7.60;99.90
15115;DHT22;7658;51.456;7.622;2023-03-01T12:42:17;8.30;99.90
15115;DHT22;7658;51.456;7.622;2023-03-01T12:50:54;8.50;99.90
15115;DHT22;7658;51.456;7.622;2023-03-01T12:56:32;8.40;99.90
15115;DHT22;7658;51.456;7.622;2023-03-01T12:59:59;8.50;99.90
15115;DHT22;7658;51.456;7.622;2023-03-01T13:05:02;8.40;99.90
15115;DHT22;7658;51.456;7.622;2023-03-01T13:07:41;8.40;99.90
15115;DHT22;7658;51.456;7.622;2023-03-01T13:10:41;8.40;99.90
15115;DHT22;7658;51.456;7.622;2023-03-01T13:13:27;8.50;99.90
15115;DHT22;7658;51.456;7.622;2023-03-01T13:15:54;8.60;99.90
15115;DHT22;7658;51.456;7.622;2023-03-01T13:20:50;8.90;99.90
15115;DHT22;7658;51.456;7.622;2023-03-01T13:28:39;8.70;99.90
15115;DHT22;7658;51.456;7.622;2023-03-01T13:49:59;8.90;99.90
15115;DHT22;7658;51.456;7.622;2023-03-01T13:52:38;8.90;99.90
15115;DHT22;7658;51.456;7.622;2023-03-01T13:55:42;8.80;99.90
15115;DHT22;7658;51.456;7.622;2023-03-01T13:58:29;8.60;99.90
15115;DHT22;7658;51.456;7.622;2023-03-01T14:01:01;8.50;99.90
15115;DHT22;7658;51.456;7.622;2023-03-01T14:03:28;8.50;99.90
15115;DHT22;7658;51.456;7.622;2023-03-01T14:06:05;8.50;99.90
15115;DHT22;7658;51.456;7.622;2023-03-01T14:08:33;8.40;99.90
15115;DHT22;7658;51.456;7.622;2023-03-01T14:11:35;8.30;99.90
15115;DHT22;7658;51.456;7.622;2023-03-01T14:16:55;8.20;99.90
15115;DHT22;7658;51.456;7.622;2023-03-01T14:19:29;8.30;99.90
15115;DHT22;7658;51.456;7.622;2023-03-01T14:25:16;8.20;99.90
15115;DHT22;7658;51.456;7.622;2023-03-01T14:27:38;8.00;99.90
15115;DHT22;7658;51.456;7.622;2023-03-01T14:30:21;7.70;99.90
15115;DHT22;7658;51.456;7.622;2023-03-01T14:32:58;7.70;99.90
15115;DHT22;7658;51.456;7.622;2023-03-01T14:35:30;7.60;99.90
15115;DHT22;7658;51.456;7.622;2023-03-01T14:37:56;7.50;99.90
15115;DHT22;7658;51.456;7.622;2023-03-01T14:40:23;7.40;99.90
15115;DHT22;7658;51.456;7.622;2023-03-01T14:42:50;7.50;99.90
15115;DHT22;7658;51.456;7.622;2023-03-01T14:45:16;7.50;99.90
15115;DHT22;7658;51.456;7.622;2023-03-01T14:47:44;7.50;99.90
15115;DHT22;7658;51.456;7.622;2023-03-01T14:52:41;7.30;99.90
15115;DHT22;7658;51.456;7.622;2023-03-01T14:55:20;7.20;99.90
15115;DHT22;7658;51.456;7.622;2023-03-01T14:57:50;7.30;99.90
15115;DHT22;7658;51.456;7.622;2023-03-01T15:00:30;7.20;99.90
15115;DHT22;7658;51.456;7.622;2023-03-01T15:03:01;7.10;99.90
15115;DHT22;7658;51.456;7.622;2023-03-01T15:05:33;7.10;99.90
15115;DHT22;7658;51.456;7.622;2023-03-01T15:08:00;7.10;99.90
15115;DHT22;7658;51.456;7.622;2023-03-01T15:10:29;7.00;99.90
15115;DHT22;7658;51.456;7.622;2023-03-01T15:12:56;6.90;99.90
15115;DHT22;7658;51.456;7.622;2023-03-01T15:17:59;6.70;99.90
15115;DHT22;7658;51.456;7.622;2023-03-01T15:20:26;6.70;99.90
15115;DHT22;7658;51.456;7.622;2023-03-01T15:22:55;6.60;99.90
15115;DHT22;7658;51.456;7.622;2023-03-01T15:25:25;6.50;99.90
15115;DHT22;7658;51.456;7.622;2023-03-01T15:27:52;6.50;99.90
15115;DHT22;7658;51.456;7.622;2023-03-01T15:30:37;6.40;99.90
15115;DHT22;7658;51.456;7.622;2023-03-01T15:35:54;6.20;99.90
15115;DHT22;7658;51.456;7.622;2023-03-01T15:39:22;6.20;99.90
15115;DHT22;7658;51.456;7.622;2023-03-01T15:41:27;6.10;99.90
15115;DHT22;7658;51.456;7.622;2023-03-01T15:43:54;6.10;99.90
15115;DHT22;7658;51.456;7.622;2023-03-01T15:48:57;6.00;99.90
15115;DHT22;7658;51.456;7.622;2023-03-01T15:51:35;6.00;99.90
15115;DHT22;7658;51.456;7.622;2023-03-01T15:54:10;5.90;99.90
15115;DHT22;7658;51.456;7.622;2023-03-01T15:56:37;5.90;99.90
15115;DHT22;7658;51.456;7.622;2023-03-01T15:59:03;5.90;99.90
15115;DHT22;7658;51.456;7.622;2023-03-01T16:01:29;5.90;99.90
15115;DHT22;7658;51.456;7.622;2023-03-01T16:03:55;5.80;99.90
15115;DHT22;7658;51.456;7.622;2023-03-01T16:06:21;5.80;99.90
15115;DHT22;7658;51.456;7.622;2023-03-01T16:08:47;5.70;99.90
15115;DHT22;7658;51.456;7.622;2023-03-01T16:11:17;5.70;99.90
15115;DHT22;7658;51.456;7.622;2023-03-01T16:13:44;5.60;99.90
15115;DHT22;7658;51.456;7.622;2023-03-01T16:16:11;5.60;99.90
15115;DHT22;7658;51.456;7.622;2023-03-01T16:18:46;5.60;99.90
15115;DHT22;7658;51.456;7.622;2023-03-01T16:21:19;5.50;99.90
15115;DHT22;7658;51.456;7.622;2023-03-01T16:23:45;5.50;99.90
15115;DHT22;7658;51.456;7.622;2023-03-01T16:26:11;5.40;99.90
15115;DHT22;7658;51.456;7.622;2023-03-01T16:28:39;5.40;99.90
15115;DHT22;7658;51.456;7.622;2023-03-01T16:31:04;5.40;99.90
15115;DHT22;7658;51.456;7.622;2023-03-01T16:33:31;5.30;99.90
15115;DHT22;7658;51.456;7.622;2023-03-01T16:35:57;5.30;99.90
15115;DHT22;7658;51.456;7.622;2023-03-01T16:38:25;5.20;99.90
15115;DHT22;7658;51.456;7.622;2023-03-01T16:40:51;5.20;99.90
15115;DHT22;7658;51.456;7.622;2023-03-01T16:43:17;5.10;99.90
15115;DHT22;7658;51.456;7.622;2023-03-01T16:45:43;5.10;99.90
15115;DHT22;7658;51.456;7.622;2023-03-01T16:48:10;5.00;99.90
15115;DHT22;7658;51.456;7.622;2023-03-01T16:50:36;5.00;99.90
15115;DHT22;7658;51.456;7.622;2023-03-01T16:53:02;4.90;99.90
15115;DHT22;7658;51.456;7.622;2023-03-01T16:55:28;4.90;99.90
15115;DHT22;7658;51.456;7.622;2023-03-01T16:57:54;4.80;99.90
15115;DHT22;7658;51.456;7.622;2023-03-01T17:00:20;4.80;99.90
15115;DHT22;7658;51.456;7.622;2023-03-01T17:02:46;4.70;99.90
15115;DHT22;7658;51.456;7.622;2023-03-01T17:05:11;4.70;99.90
15115;DHT22;7658;51.456;7.622;2023-03-01T17:07:37;4.60;99.90
15115;DHT22;7658;51.456;7.622;2023-03-01T17:10:05;4.60;99.90
15115;DHT22;7658;51.456;7.622;2023-03-01T17:12:31;4.50;99.90
15115;DHT22;7658;51.456;7.622;2023-03-01T17:14:58;4.40;99.90
15115;DHT22;7658;51.456;7.622;2023-03-01T17:17:24;4.30;99.90
15115;DHT22;7658;51.456;7.622;2023-03-01T17:19:50;4.30;99.90
15115;DHT22;7658;51.456;7.622;2023-03-01T17:22:16;4.20;99.90
15115;DHT22;7658;51.456;7.622;2023-03-01T17:24:43;4.10;99.90
15115;DHT22;7658;51.456;7.622;2023-03-01T17:27:09;4.10;99.90
15115;DHT22;7658;51.456;7.622;2023-03-01T17:29:37;4.00;99.90
15115;DHT22;7658;51.456;7.622;2023-03-01T17:32:03;4.00;99.90
15115;DHT22;7658;51.456;7.622;2023-03-01T17:34:31;3.90;99.90
15115;DHT22;7658;51.456;7.622;2023-03-01T17:36:57;3.90;99.90
15115;DHT22;7658;51.456;7.622;2023-03-01T17:39:22;3.80;99.90
15115;DHT22;7658;51.456;7.622;2023-03-01T17:41:53;3.80;99.90
15115;DHT22;7658;51.456;7.622;2023-03-01T17:44:19;3.80;99.90
15115;DHT22;7658;51.456;7.622;2023-03-01T17:46:44;3.70;99.90
15115;DHT22;7658;51.456;7.622;2023-03-01T17:49:10;3.60;99.90
15115;DHT22;7658;51.456;7.622;2023-03-01T17:51:36;3.60;99.90
15115;DHT22;7658;51.456;7.622;2023-03-01T17:54:02;3.60;99.90
15115;DHT22;7658;51.456;7.622;2023-03-01T17:56:28;3.50;99.90
15115;DHT22;7658;51.456;7.622;2023-03-01T17:58:54;3.50;99.90
15115;DHT22;7658;51.456;7.622;2023-03-01T18:01:21;3.60;99.90
15115;DHT22;7658;51.456;7.622;2023-03-01T18:03:50;3.50;99.90
15115;DHT22;7658;51.456;7.622;2023-03-01T18:06:18;3.50;99.90
15115;DHT22;7658;51.456;7.622;2023-03-01T18:08:45;3.50;99.90
15115;DHT22;7658;51.456;7.622;2023-03-01T18:11:12;3.50;99.90
15115;DHT22;7658;51.456;7.622;2023-03-01T18:13:39;3.50;99.90
15115;DHT22;7658;51.456;7.622;2023-03-01T18:16:11;3.50;99.90
15115;DHT22;7658;51.456;7.622;2023-03-01T18:18:38;3.50;99.90
15115;DHT22;7658;51.456;7.622;2023-03-01T18:21:04;3.50;99.90
15115;DHT22;7658;51.456;7.622;2023-03-01T18:23:31;3.50;99.90